createdAt,value
2016-12-16T00:00:23.801Z,3.84
2016-12-16T00:01:23.814Z,3.86
2016-12-16T00:02:38.750Z,3.79
2016-12-16T00:03:23.849Z,3.83
2016-12-16T00:04:23.869Z,3.86
2016-12-16T00:05:23.881Z,3.84
2016-12-16T00:07:23.915Z,3.83
2016-12-16T00:08:23.935Z,3.8
2016-12-16T00:09:23.947Z,3.76
2016-12-16T00:10:23.967Z,3.79
2016-12-16T00:11:23.984Z,3.72
2016-12-16T00:12:38.917Z,3.8
2016-12-16T00:13:24.013Z,3.76
2016-12-16T00:14:24.031Z,3.72
2016-12-16T00:15:24.050Z,3.83
2016-12-16T00:16:24.063Z,3.69
2016-12-16T00:17:24.080Z,3.68
2016-12-16T00:18:39.015Z,3.69
2016-12-16T00:19:24.112Z,3.69
2016-12-16T00:20:24.132Z,3.57
2016-12-16T00:21:24.147Z,3.57
2016-12-16T00:22:24.162Z,3.69
2016-12-16T00:23:24.179Z,3.62
2016-12-16T00:24:24.197Z,3.78
2016-12-16T00:25:24.213Z,3.73
2016-12-16T00:26:24.227Z,3.76
2016-12-16T00:27:24.250Z,3.72
2016-12-16T00:28:24.260Z,3.57
2016-12-16T00:29:24.275Z,3.65
2016-12-16T00:30:24.294Z,3.66
2016-12-16T00:31:24.311Z,3.66
2016-12-16T00:32:24.326Z,3.61
2016-12-16T00:33:24.391Z,3.65
2016-12-16T00:34:39.276Z,3.55
2016-12-16T00:35:24.373Z,3.55
2016-12-16T00:36:24.394Z,3.66
2016-12-16T00:37:24.407Z,3.65
2016-12-16T00:38:24.425Z,3.66
2016-12-16T00:40:24.459Z,3.61
2016-12-16T00:42:24.492Z,3.75
2016-12-16T00:43:24.508Z,3.65
2016-12-16T00:44:24.521Z,3.72
2016-12-16T00:45:39.459Z,3.6
2016-12-16T00:46:24.556Z,3.72
2016-12-16T00:47:24.576Z,3.61
2016-12-16T00:48:24.589Z,3.7
2016-12-16T00:49:39.523Z,3.75
2016-12-16T00:51:24.638Z,3.69
2016-12-16T00:52:24.656Z,3.66
2016-12-16T00:53:24.670Z,3.7
2016-12-16T00:54:24.691Z,3.76
2016-12-16T00:55:24.703Z,3.68
2016-12-16T00:56:24.722Z,3.79
2016-12-16T00:58:24.751Z,3.84
2016-12-16T00:59:24.771Z,3.69
2016-12-16T01:00:39.703Z,3.65
2016-12-16T01:01:24.803Z,3.73
2016-12-16T01:02:24.816Z,3.72
2016-12-16T01:03:24.835Z,3.65
2016-12-16T01:04:24.851Z,3.73
2016-12-16T01:05:24.868Z,3.75
2016-12-16T01:06:24.884Z,3.73
2016-12-16T01:07:24.899Z,3.7
2016-12-16T01:08:24.918Z,3.72
2016-12-16T01:09:24.932Z,3.78
2016-12-16T01:11:24.970Z,3.73
2016-12-16T01:12:24.981Z,3.83
2016-12-16T01:13:24.998Z,3.75
2016-12-16T01:14:39.934Z,3.83
2016-12-16T01:15:39.949Z,3.75
2016-12-16T01:16:25.046Z,3.66
2016-12-16T01:17:39.980Z,3.69
2016-12-16T01:18:25.081Z,3.72
2016-12-16T01:19:25.098Z,3.76
2016-12-16T01:20:25.115Z,3.76
2016-12-16T01:21:40.047Z,3.75
2016-12-16T01:22:25.145Z,3.78
2016-12-16T01:23:25.163Z,3.86
2016-12-16T01:24:25.177Z,3.75
2016-12-16T01:25:25.195Z,3.65
2016-12-16T01:26:25.211Z,3.75
2016-12-16T01:27:25.308Z,3.68
2016-12-16T01:28:25.242Z,3.8
2016-12-16T01:29:25.262Z,3.73
2016-12-16T01:30:25.312Z,3.68
2016-12-16T01:31:25.295Z,3.73
2016-12-16T01:32:25.309Z,3.75
2016-12-16T01:33:25.326Z,3.68
2016-12-16T01:34:25.342Z,3.72
2016-12-16T01:35:25.357Z,3.72
2016-12-16T01:36:25.374Z,3.62
2016-12-16T01:37:40.310Z,3.62
2016-12-16T01:38:25.408Z,3.62
2016-12-16T01:39:25.423Z,3.7
2016-12-16T01:40:25.439Z,3.58
2016-12-16T01:41:25.457Z,3.62
2016-12-16T01:42:25.471Z,3.75
2016-12-16T01:43:25.490Z,3.65
2016-12-16T01:44:25.507Z,3.68
2016-12-16T01:45:40.442Z,3.7
2016-12-16T01:46:25.547Z,3.76
2016-12-16T01:47:25.553Z,3.84
2016-12-16T01:48:25.573Z,3.87
2016-12-16T01:49:40.504Z,3.7
2016-12-16T01:50:25.605Z,3.66
2016-12-16T01:51:25.620Z,3.62
2016-12-16T01:52:25.637Z,3.72
2016-12-16T01:53:40.572Z,3.68
2016-12-16T01:54:25.668Z,3.79
2016-12-16T01:55:25.734Z,3.68
2016-12-16T01:56:25.702Z,3.66
2016-12-16T01:57:25.718Z,3.78
2016-12-16T01:59:25.753Z,3.68
2016-12-16T02:00:40.737Z,3.65
2016-12-16T02:02:25.804Z,3.7
2016-12-16T02:03:25.815Z,3.69
2016-12-16T02:04:25.836Z,3.76
2016-12-16T02:05:25.851Z,3.61
2016-12-16T02:06:25.865Z,3.7
2016-12-16T02:07:25.882Z,3.73
2016-12-16T02:08:25.897Z,3.78
2016-12-16T02:09:40.832Z,3.79
2016-12-16T02:11:25.947Z,3.62
2016-12-16T02:12:25.962Z,3.7
2016-12-16T02:14:25.995Z,3.62
2016-12-16T02:15:26.014Z,3.65
2016-12-16T02:17:26.044Z,3.7
2016-12-16T02:18:40.980Z,3.72
2016-12-16T02:19:26.077Z,3.9
2016-12-16T02:20:26.094Z,3.86
2016-12-16T02:21:26.109Z,3.84
2016-12-16T02:22:26.129Z,3.83
2016-12-16T02:23:26.142Z,3.91
2016-12-16T02:24:41.077Z,3.94
2016-12-16T02:25:26.179Z,3.88
2016-12-16T02:26:26.191Z,3.88
2016-12-16T02:27:26.209Z,3.8
2016-12-16T02:28:26.223Z,3.75
2016-12-16T02:29:26.240Z,3.84
2016-12-16T02:30:26.257Z,3.86
2016-12-16T02:32:26.291Z,3.86
2016-12-16T02:33:26.309Z,3.8
2016-12-16T02:34:26.373Z,3.86
2016-12-16T02:35:41.257Z,3.8
2016-12-16T02:36:26.357Z,3.86
2016-12-16T02:37:26.370Z,3.84
2016-12-16T02:38:26.391Z,3.84
2016-12-16T02:39:26.406Z,3.8
2016-12-16T02:40:26.421Z,3.86
2016-12-16T02:42:26.452Z,3.8
2016-12-16T02:43:26.469Z,3.83
2016-12-16T02:44:26.485Z,3.86
2016-12-16T02:45:26.501Z,3.83
2016-12-16T02:48:26.552Z,3.68
2016-12-16T02:49:26.570Z,3.79
2016-12-16T02:50:41.503Z,3.75
2016-12-16T02:51:26.603Z,3.7
2016-12-16T02:52:41.535Z,3.7
2016-12-16T02:53:26.635Z,3.83
2016-12-16T02:54:26.651Z,3.73
2016-12-16T02:55:26.666Z,3.69
2016-12-16T02:56:41.601Z,3.76
2016-12-16T02:57:26.699Z,3.83
2016-12-16T02:58:26.716Z,3.88
2016-12-16T02:59:26.735Z,3.72
2016-12-16T03:00:26.752Z,3.58
2016-12-16T03:01:26.765Z,3.62
2016-12-16T03:03:26.796Z,3.62
2016-12-16T03:04:26.816Z,3.62
2016-12-16T03:05:26.830Z,3.61
2016-12-16T03:06:26.901Z,3.62
2016-12-16T03:07:26.864Z,3.7
2016-12-16T03:08:41.797Z,3.61
2016-12-16T03:09:26.894Z,3.68
2016-12-16T03:10:26.914Z,3.79
2016-12-16T03:11:26.931Z,3.73
2016-12-16T03:12:41.862Z,3.73
2016-12-16T03:13:26.963Z,3.73
2016-12-16T03:14:26.979Z,3.75
2016-12-16T03:15:26.993Z,3.75
2016-12-16T03:17:27.030Z,3.7
2016-12-16T03:18:27.048Z,3.75
2016-12-16T03:19:27.057Z,3.73
2016-12-16T03:20:27.077Z,3.62
2016-12-16T03:21:27.093Z,3.72
2016-12-16T03:22:27.109Z,3.7
2016-12-16T03:23:27.126Z,3.7
2016-12-16T03:24:42.058Z,3.65
2016-12-16T03:25:42.073Z,3.68
2016-12-16T03:26:27.174Z,3.8
2016-12-16T03:27:27.193Z,3.65
2016-12-16T03:28:42.122Z,3.72
2016-12-16T03:29:27.219Z,3.66
2016-12-16T03:30:27.240Z,3.73
2016-12-16T03:31:27.256Z,3.75
2016-12-16T03:32:27.270Z,3.76
2016-12-16T03:33:27.286Z,3.75
2016-12-16T03:34:27.303Z,3.75
2016-12-16T03:35:27.319Z,3.7
2016-12-16T03:36:27.339Z,3.7
2016-12-16T03:37:27.357Z,3.62
2016-12-16T03:38:27.366Z,3.61
2016-12-16T03:39:27.384Z,3.66
2016-12-16T03:40:27.399Z,3.6
2016-12-16T03:41:27.417Z,3.6
2016-12-16T03:42:27.433Z,3.73
2016-12-16T03:43:27.447Z,3.58
2016-12-16T03:44:42.384Z,3.65
2016-12-16T03:45:27.514Z,3.62
2016-12-16T03:46:27.498Z,3.78
2016-12-16T03:47:27.515Z,3.7
2016-12-16T03:48:27.529Z,3.69
2016-12-16T03:49:42.470Z,3.72
2016-12-16T03:51:27.631Z,3.72
2016-12-16T03:52:27.595Z,3.7
2016-12-16T03:53:27.615Z,3.79
2016-12-16T03:54:27.631Z,3.76
2016-12-16T03:55:42.561Z,3.57
2016-12-16T03:56:27.666Z,3.57
2016-12-16T03:57:27.676Z,3.6
2016-12-16T03:58:27.697Z,3.6
2016-12-16T03:59:42.627Z,3.54
2016-12-16T04:00:27.726Z,3.43
2016-12-16T04:01:27.743Z,3.29
2016-12-16T04:02:27.758Z,3.26
2016-12-16T04:03:27.774Z,3.14
2016-12-16T04:04:27.794Z,3.18
2016-12-16T04:05:27.809Z,3.06
2016-12-16T04:06:27.824Z,3.03
2016-12-16T04:07:27.839Z,3
2016-12-16T04:08:27.856Z,2.99
2016-12-16T04:09:27.874Z,2.95
2016-12-16T04:10:27.888Z,2.87
2016-12-16T04:11:27.921Z,2.95
2016-12-16T04:12:27.922Z,2.93
2016-12-16T04:13:27.936Z,2.79
2016-12-16T04:14:27.952Z,2.82
2016-12-16T04:15:27.969Z,2.77
2016-12-16T04:16:27.983Z,2.71
2016-12-16T04:17:28.002Z,2.67
2016-12-16T04:18:28.017Z,2.69
2016-12-16T04:19:28.034Z,2.84
2016-12-16T04:20:28.049Z,2.71
2016-12-16T04:21:28.064Z,2.71
2016-12-16T04:22:28.081Z,2.64
2016-12-16T04:23:28.097Z,2.6
2016-12-16T04:24:28.112Z,2.52
2016-12-16T04:25:28.135Z,2.52
2016-12-16T04:26:28.144Z,2.46
2016-12-16T04:27:43.078Z,2.43
2016-12-16T04:28:28.177Z,2.39
2016-12-16T04:29:28.197Z,2.46
2016-12-16T04:30:28.208Z,2.42
2016-12-16T04:31:43.143Z,2.42
2016-12-16T04:32:28.242Z,2.34
2016-12-16T04:34:28.271Z,2.38
2016-12-16T04:35:28.288Z,2.31
2016-12-16T04:37:28.322Z,2.35
2016-12-16T04:38:28.333Z,2.34
2016-12-16T04:39:28.352Z,2.28
2016-12-16T04:40:28.366Z,2.24
2016-12-16T04:41:28.386Z,2.18
2016-12-16T04:42:28.397Z,2.25
2016-12-16T04:43:28.413Z,2.25
2016-12-16T04:44:28.432Z,2.24
2016-12-16T04:45:28.497Z,2.24
2016-12-16T04:46:28.463Z,2.18
2016-12-16T04:47:43.395Z,2.23
2016-12-16T04:48:28.494Z,2.27
2016-12-16T04:49:28.511Z,2.27
2016-12-16T04:50:28.528Z,2.23
2016-12-16T04:51:28.542Z,2.2
2016-12-16T04:52:28.558Z,2.17
2016-12-16T04:53:28.579Z,2.36
2016-12-16T04:54:28.887Z,2.35
2016-12-16T04:55:28.617Z,2.3
2016-12-16T04:56:28.622Z,2.31
2016-12-16T04:57:28.635Z,2.25
2016-12-16T04:58:43.569Z,2.18
2016-12-16T04:59:43.584Z,2.23
2016-12-16T05:00:28.682Z,2.2
2016-12-16T05:01:28.700Z,2.2
2016-12-16T05:02:28.715Z,2.16
2016-12-16T05:03:43.649Z,2.12
2016-12-16T05:04:28.744Z,2.2
2016-12-16T05:05:28.761Z,2.2
2016-12-16T05:06:28.775Z,2.17
2016-12-16T05:07:28.792Z,2.18
2016-12-16T05:08:28.808Z,2.2
2016-12-16T05:09:28.825Z,2.16
2016-12-16T05:10:28.840Z,2.3
2016-12-16T05:11:28.855Z,2.36
2016-12-16T05:12:28.871Z,2.31
2016-12-16T05:13:28.890Z,2.25
2016-12-16T05:14:28.909Z,2.21
2016-12-16T05:15:28.916Z,2.16
2016-12-16T05:16:28.965Z,2.17
2016-12-16T05:17:28.951Z,2.03
2016-12-16T05:18:28.963Z,1.91
2016-12-16T05:19:43.898Z,2.05
2016-12-16T05:20:29.000Z,1.99
2016-12-16T05:21:29.011Z,2.1
2016-12-16T05:22:29.027Z,2.07
2016-12-16T05:24:29.367Z,2.02
2016-12-16T05:25:29.077Z,2.1
2016-12-16T05:27:29.111Z,1.99
2016-12-16T05:28:44.041Z,1.95
2016-12-16T05:29:29.139Z,1.91
2016-12-16T05:30:29.154Z,1.83
2016-12-16T05:31:29.174Z,1.84
2016-12-16T05:32:29.183Z,1.73
2016-12-16T05:33:29.203Z,1.83
2016-12-16T05:34:44.136Z,1.73
2016-12-16T05:35:29.231Z,1.8
2016-12-16T05:36:29.246Z,1.72
2016-12-16T05:37:29.265Z,1.87
2016-12-16T05:38:29.279Z,1.8
2016-12-16T05:40:29.311Z,1.7
2016-12-16T05:41:29.325Z,1.72
2016-12-16T05:42:29.340Z,1.73
2016-12-16T05:43:29.357Z,1.77
2016-12-16T05:44:29.369Z,1.63
2016-12-16T05:45:29.386Z,1.55
2016-12-16T05:46:29.402Z,1.58
2016-12-16T05:47:44.334Z,1.63
2016-12-16T05:48:29.433Z,1.69
2016-12-16T05:49:29.449Z,1.58
2016-12-16T05:50:29.468Z,1.63
2016-12-16T05:51:29.481Z,1.72
2016-12-16T05:52:29.496Z,1.65
2016-12-16T05:53:29.511Z,1.65
2016-12-16T05:54:29.524Z,1.73
2016-12-16T05:55:29.541Z,1.54
2016-12-16T05:56:29.557Z,1.59
2016-12-16T05:57:29.573Z,1.45
2016-12-16T05:58:29.591Z,1.59
2016-12-16T05:59:29.605Z,1.47
2016-12-16T06:00:44.537Z,1.51
2016-12-16T06:01:44.551Z,1.58
2016-12-16T06:02:29.649Z,1.6
2016-12-16T06:03:29.666Z,1.58
2016-12-16T06:04:29.686Z,1.55
2016-12-16T06:05:29.698Z,1.42
2016-12-16T06:06:44.630Z,1.4
2016-12-16T06:07:29.726Z,1.48
2016-12-16T06:08:29.743Z,1.41
2016-12-16T06:09:29.809Z,1.45
2016-12-16T06:10:29.772Z,1.44
2016-12-16T06:11:29.793Z,1.33
2016-12-16T06:13:29.818Z,1.34
2016-12-16T06:14:29.834Z,1.29
2016-12-16T06:15:29.849Z,1.32
2016-12-16T06:16:29.866Z,1.32
2016-12-16T06:17:44.796Z,1.14
2016-12-16T06:18:29.898Z,1.15
2016-12-16T06:19:29.910Z,1.18
2016-12-16T06:20:30.228Z,1.22
2016-12-16T06:21:29.941Z,1.2
2016-12-16T06:22:44.873Z,1.12
2016-12-16T06:23:29.975Z,1.2
2016-12-16T06:24:29.984Z,1.18
2016-12-16T06:25:30.002Z,1.11
2016-12-16T06:26:30.017Z,1.16
2016-12-16T06:27:30.031Z,1.11
2016-12-16T06:28:30.049Z,1.09
2016-12-16T06:29:30.063Z,1.24
2016-12-16T06:30:30.080Z,1.16
2016-12-16T06:31:30.094Z,1.09
2016-12-16T06:32:30.108Z,1.09
2016-12-16T06:33:30.128Z,1.16
2016-12-16T06:34:30.142Z,1.12
2016-12-16T06:35:30.153Z,1.08
2016-12-16T06:36:30.172Z,1.12
2016-12-16T06:37:30.187Z,1.08
2016-12-16T06:38:45.116Z,1.14
2016-12-16T06:39:30.216Z,1.11
2016-12-16T06:40:30.228Z,1.12
2016-12-16T06:41:30.244Z,1.05
2016-12-16T06:42:30.260Z,1.18
2016-12-16T06:43:30.275Z,1.06
2016-12-16T06:44:30.293Z,1.16
2016-12-16T06:45:30.609Z,1.2
2016-12-16T06:46:30.321Z,1.04
2016-12-16T06:47:30.341Z,1.04
2016-12-16T06:48:30.350Z,1.08
2016-12-16T06:49:45.284Z,1.2
2016-12-16T06:50:45.301Z,1.09
2016-12-16T06:51:30.395Z,1.16
2016-12-16T06:52:30.471Z,1.12
2016-12-16T06:53:30.427Z,1.09
2016-12-16T06:54:45.358Z,1.06
2016-12-16T06:55:30.456Z,1.23
2016-12-16T06:56:30.473Z,1.18
2016-12-16T06:57:30.485Z,1.05
2016-12-16T06:59:30.517Z,1.15
2016-12-16T07:00:30.531Z,1.11
2016-12-16T07:01:30.547Z,1.02
2016-12-16T07:03:45.496Z,1.08
2016-12-16T07:04:30.591Z,0.98
2016-12-16T07:05:30.608Z,1.02
2016-12-16T07:06:30.623Z,1.04
2016-12-16T07:07:30.687Z,1
2016-12-16T07:08:30.655Z,0.96
2016-12-16T07:09:45.586Z,1.02
2016-12-16T07:10:30.684Z,0.98
2016-12-16T07:11:30.695Z,0.98
2016-12-16T07:13:30.729Z,0.98
2016-12-16T07:15:30.757Z,1.11
2016-12-16T07:17:45.709Z,1.04
2016-12-16T07:18:30.809Z,1.04
2016-12-16T07:19:30.817Z,0.98
2016-12-16T07:20:45.751Z,0.96
2016-12-16T07:21:30.852Z,0.86
2016-12-16T07:22:45.779Z,0.87
2016-12-16T07:23:30.877Z,0.84
2016-12-16T07:24:30.891Z,0.87
2016-12-16T07:25:30.910Z,0.91
2016-12-16T07:26:30.922Z,0.9
2016-12-16T07:27:30.942Z,0.87
2016-12-16T07:28:30.956Z,0.87
2016-12-16T07:29:30.972Z,0.97
2016-12-16T07:30:30.984Z,0.87
2016-12-16T07:31:31.001Z,0.87
2016-12-16T07:32:31.319Z,0.83
2016-12-16T07:33:31.032Z,0.88
2016-12-16T07:34:31.049Z,0.86
2016-12-16T07:35:31.058Z,0.88
2016-12-16T07:36:31.075Z,0.8
2016-12-16T07:37:46.310Z,0.84
2016-12-16T07:38:31.107Z,0.88
2016-12-16T07:39:31.118Z,0.83
2016-12-16T07:40:31.134Z,0.75
2016-12-16T07:41:46.066Z,0.83
2016-12-16T07:42:31.163Z,0.88
2016-12-16T07:43:31.177Z,0.87
2016-12-16T07:44:31.193Z,0.75
2016-12-16T07:45:31.207Z,0.86
2016-12-16T07:46:31.255Z,0.86
2016-12-16T07:47:31.238Z,0.9
2016-12-16T07:48:31.266Z,0.86
2016-12-16T07:49:31.268Z,0.86
2016-12-16T07:50:31.312Z,0.97
2016-12-16T07:51:31.297Z,1
2016-12-16T07:52:31.368Z,1.04
2016-12-16T07:53:31.334Z,1.12
2016-12-16T07:54:31.344Z,1.04
2016-12-16T07:55:31.359Z,1
2016-12-16T07:56:31.424Z,1
2016-12-16T07:57:46.306Z,0.98
2016-12-16T07:58:31.402Z,1.08
2016-12-16T07:59:31.420Z,1.06
2016-12-16T08:00:31.433Z,1.02
2016-12-16T08:02:31.468Z,0.97
2016-12-16T08:03:31.786Z,1.04
2016-12-16T08:04:46.415Z,1.04
2016-12-16T08:05:31.510Z,0.96
2016-12-16T08:06:31.523Z,1.12
2016-12-16T08:07:31.545Z,1.11
2016-12-16T08:08:46.472Z,1.24
2016-12-16T08:09:31.570Z,1.06
2016-12-16T08:10:31.591Z,1.06
2016-12-16T08:11:31.600Z,1.22
2016-12-16T08:12:31.617Z,1.09
2016-12-16T08:13:46.546Z,1.12
2016-12-16T08:14:31.678Z,1.2
2016-12-16T08:15:31.662Z,1.27
2016-12-16T08:16:31.676Z,1.29
2016-12-16T08:17:31.690Z,1.16
2016-12-16T08:18:31.706Z,1.16
2016-12-16T08:19:31.723Z,1.15
2016-12-16T08:20:31.738Z,1.32
2016-12-16T08:22:31.771Z,1.36
2016-12-16T08:23:31.810Z,1.32
2016-12-16T08:24:31.798Z,1.33
2016-12-16T08:25:46.731Z,1.32
2016-12-16T08:26:31.833Z,1.36
2016-12-16T08:27:31.844Z,1.44
2016-12-16T08:28:31.858Z,1.34
2016-12-16T08:29:46.791Z,1.29
2016-12-16T08:30:31.889Z,1.4
2016-12-16T08:31:31.904Z,1.36
2016-12-16T08:32:31.922Z,1.41
2016-12-16T08:33:31.933Z,1.45
2016-12-16T08:34:31.954Z,1.59
2016-12-16T08:35:31.964Z,1.7
2016-12-16T08:37:32.002Z,1.62
2016-12-16T08:38:32.013Z,1.58
2016-12-16T08:39:32.028Z,1.66
2016-12-16T08:40:32.048Z,1.77
2016-12-16T08:41:32.062Z,1.79
2016-12-16T08:42:32.107Z,1.69
2016-12-16T08:43:32.090Z,1.83
2016-12-16T08:44:47.027Z,1.87
2016-12-16T08:45:32.121Z,1.84
2016-12-16T08:46:32.136Z,1.8
2016-12-16T08:47:32.151Z,1.87
2016-12-16T08:48:32.182Z,1.87
2016-12-16T08:49:32.203Z,1.98
2016-12-16T08:52:32.230Z,2.14
2016-12-16T08:53:47.168Z,2.21
2016-12-16T08:54:32.259Z,2.2
2016-12-16T08:55:32.278Z,2.31
2016-12-16T08:56:32.293Z,2.34
2016-12-16T08:57:32.309Z,2.3
2016-12-16T08:58:32.325Z,2.35
2016-12-16T08:59:32.339Z,2.23
2016-12-16T09:00:32.355Z,2.23
2016-12-16T09:01:32.373Z,2.28
2016-12-16T09:02:32.389Z,2.28
2016-12-16T09:03:32.404Z,2.45
2016-12-16T09:05:32.433Z,2.39
2016-12-16T09:06:32.449Z,2.36
2016-12-16T09:08:32.484Z,2.42
2016-12-16T09:09:32.806Z,2.46
2016-12-16T09:10:32.517Z,2.53
2016-12-16T09:11:47.447Z,2.54
2016-12-16T09:12:32.553Z,2.54
2016-12-16T09:13:32.563Z,2.59
2016-12-16T09:14:32.580Z,2.61
2016-12-16T09:15:32.594Z,2.6
2016-12-16T09:16:47.529Z,2.56
2016-12-16T09:17:32.625Z,2.53
2016-12-16T09:18:32.639Z,2.6
2016-12-16T09:19:32.655Z,2.59
2016-12-16T09:20:32.676Z,2.52
2016-12-16T09:22:32.703Z,2.71
2016-12-16T09:23:32.770Z,2.74
2016-12-16T09:24:32.734Z,2.74
2016-12-16T09:25:32.751Z,2.74
2016-12-16T09:26:32.768Z,2.85
2016-12-16T09:27:32.784Z,2.74
2016-12-16T09:28:32.852Z,2.72
2016-12-16T09:29:32.814Z,2.82
2016-12-16T09:30:32.833Z,2.84
2016-12-16T09:31:32.848Z,2.82
2016-12-16T09:32:47.781Z,2.92
2016-12-16T09:33:33.192Z,3.02
2016-12-16T09:34:32.893Z,3.08
2016-12-16T09:35:32.911Z,3.03
2016-12-16T09:36:32.927Z,3.08
2016-12-16T09:37:32.994Z,3.06
2016-12-16T09:38:32.959Z,3.13
2016-12-16T09:39:32.976Z,3.2
2016-12-16T09:40:32.994Z,3.15
2016-12-16T09:41:33.008Z,3.03
2016-12-16T09:42:33.022Z,3.02
2016-12-16T09:43:33.050Z,3.05
2016-12-16T09:44:33.066Z,3.05
2016-12-16T09:45:33.075Z,3.03
2016-12-16T09:46:33.091Z,3.11
2016-12-16T09:47:33.105Z,3
2016-12-16T09:48:48.042Z,3.06
2016-12-16T09:49:33.137Z,3.08
2016-12-16T09:52:33.491Z,3.18
2016-12-16T09:53:33.203Z,3.13
2016-12-16T09:54:33.221Z,3.17
2016-12-16T09:55:33.236Z,3.18
2016-12-16T09:56:33.256Z,3.11
2016-12-16T09:57:33.267Z,3.18
2016-12-16T09:58:33.285Z,3.28
2016-12-16T09:59:33.300Z,3.26
2016-12-16T10:00:48.233Z,3.35
2016-12-16T10:01:33.333Z,3.35
2016-12-16T10:02:33.350Z,3.45
2016-12-16T10:03:33.369Z,3.32
2016-12-16T10:04:48.300Z,3.45
2016-12-16T10:05:33.400Z,3.51
2016-12-16T10:06:33.417Z,3.42
2016-12-16T10:07:33.430Z,3.45
2016-12-16T10:08:33.446Z,3.45
2016-12-16T10:09:33.463Z,3.58
2016-12-16T10:10:33.480Z,3.57
2016-12-16T10:11:33.495Z,3.61
2016-12-16T10:12:33.515Z,3.51
2016-12-16T10:13:33.533Z,3.48
2016-12-16T10:14:33.553Z,3.61
2016-12-16T10:15:48.481Z,3.62
2016-12-16T10:16:33.581Z,3.66
2016-12-16T10:17:33.596Z,3.65
2016-12-16T10:18:33.617Z,3.6
2016-12-16T10:19:48.548Z,3.6
2016-12-16T10:20:33.655Z,3.66
2016-12-16T10:21:33.665Z,3.66
2016-12-16T10:22:33.678Z,3.62
2016-12-16T10:23:33.695Z,3.78
2016-12-16T10:24:33.718Z,3.79
2016-12-16T10:25:33.728Z,3.79
2016-12-16T10:26:33.746Z,3.79
2016-12-16T10:27:33.766Z,3.8
2016-12-16T10:28:33.779Z,3.72
2016-12-16T10:29:33.795Z,3.8
2016-12-16T10:30:48.729Z,3.8
2016-12-16T10:31:48.746Z,3.9
2016-12-16T10:32:33.848Z,3.79
2016-12-16T10:33:33.862Z,3.84
2016-12-16T10:34:33.880Z,3.9
2016-12-16T10:35:33.895Z,4
2016-12-16T10:36:33.918Z,3.88
2016-12-16T10:37:33.929Z,3.87
2016-12-16T10:39:33.961Z,3.93
2016-12-16T10:40:33.982Z,3.96
2016-12-16T10:41:33.998Z,4.05
2016-12-16T10:42:34.016Z,3.93
2016-12-16T10:43:34.027Z,3.94
2016-12-16T10:44:34.045Z,4
2016-12-16T10:45:48.979Z,4
2016-12-16T10:46:34.078Z,3.98
2016-12-16T10:47:49.012Z,4.05
2016-12-16T10:48:34.110Z,4.18
2016-12-16T10:49:34.128Z,4.12
2016-12-16T10:50:34.142Z,4.15
2016-12-16T10:51:49.079Z,4.14
2016-12-16T10:52:34.177Z,4.23
2016-12-16T10:53:34.193Z,4.24
2016-12-16T10:54:34.213Z,4.23
2016-12-16T10:55:34.230Z,4.22
2016-12-16T10:56:34.246Z,4.26
2016-12-16T10:57:34.262Z,4.18
2016-12-16T10:58:34.278Z,4.26
2016-12-16T10:59:34.298Z,4.36
2016-12-16T11:00:34.317Z,4.34
2016-12-16T11:01:34.337Z,4.3
2016-12-16T11:02:49.262Z,4.3
2016-12-16T11:03:34.364Z,4.24
2016-12-16T11:04:34.379Z,4.24
2016-12-16T11:05:34.395Z,4.2
2016-12-16T11:06:34.410Z,4.2
2016-12-16T11:07:49.348Z,4.29
2016-12-16T11:08:34.760Z,4.23
2016-12-16T11:09:34.465Z,4.36
2016-12-16T11:11:34.498Z,4.27
2016-12-16T11:13:34.541Z,4.24
2016-12-16T11:14:34.550Z,4.24
2016-12-16T11:15:34.567Z,4.27
2016-12-16T11:16:34.582Z,4.34
2016-12-16T11:17:34.601Z,4.32
2016-12-16T11:18:34.618Z,4.29
2016-12-16T11:19:34.636Z,4.47
2016-12-16T11:20:34.651Z,4.36
2016-12-16T11:21:34.668Z,4.36
2016-12-16T11:22:35.004Z,4.41
2016-12-16T11:23:49.624Z,4.45
2016-12-16T11:24:34.719Z,4.42
2016-12-16T11:25:34.737Z,4.41
2016-12-16T11:26:34.784Z,4.44
2016-12-16T11:27:34.771Z,4.65
2016-12-16T11:28:34.789Z,4.62
2016-12-16T11:29:34.816Z,4.42
2016-12-16T11:30:34.826Z,4.52
2016-12-16T11:31:34.840Z,4.48
2016-12-16T11:32:34.856Z,4.6
2016-12-16T11:33:34.882Z,4.52
2016-12-16T11:34:34.892Z,4.45
2016-12-16T11:35:34.907Z,4.52
2016-12-16T11:36:34.928Z,4.59
2016-12-16T11:37:34.943Z,4.66
2016-12-16T11:38:34.962Z,4.66
2016-12-16T11:39:49.896Z,4.59
2016-12-16T11:40:34.995Z,4.59
2016-12-16T11:41:35.013Z,4.59
2016-12-16T11:42:35.129Z,4.58
2016-12-16T11:43:35.048Z,4.52
2016-12-16T11:45:35.086Z,4.54
2016-12-16T11:46:35.096Z,4.55
2016-12-16T11:47:35.115Z,4.65
2016-12-16T11:48:50.052Z,4.59
2016-12-16T11:49:35.149Z,4.59
2016-12-16T11:50:50.084Z,4.59
2016-12-16T11:51:35.186Z,4.48
2016-12-16T11:52:35.204Z,4.5
2016-12-16T11:53:35.228Z,4.44
2016-12-16T11:54:50.154Z,4.44
2016-12-16T11:55:35.257Z,4.45
2016-12-16T11:56:35.269Z,4.48
2016-12-16T11:57:35.591Z,4.44
2016-12-16T11:58:35.338Z,4.45
2016-12-16T12:00:35.338Z,4.5
2016-12-16T12:02:35.686Z,4.45
2016-12-16T12:03:35.390Z,4.42
2016-12-16T12:04:50.327Z,4.48
2016-12-16T12:05:35.429Z,4.41
2016-12-16T12:06:35.443Z,4.45
2016-12-16T12:07:35.462Z,4.51
2016-12-16T12:08:35.480Z,4.54
2016-12-16T12:09:35.500Z,4.5
2016-12-16T12:10:35.514Z,4.62
2016-12-16T12:11:35.563Z,4.59
2016-12-16T12:12:35.548Z,4.6
2016-12-16T12:13:35.565Z,4.63
2016-12-16T12:14:35.581Z,4.66
2016-12-16T12:15:35.602Z,4.69
2016-12-16T12:16:35.615Z,4.66
2016-12-16T12:17:35.636Z,4.73
2016-12-16T12:18:35.656Z,4.67
2016-12-16T12:19:50.588Z,4.73
2016-12-16T12:20:35.686Z,4.69
2016-12-16T12:21:35.705Z,4.69
2016-12-16T12:22:35.721Z,4.72
2016-12-16T12:23:35.736Z,4.78
2016-12-16T12:24:35.756Z,4.67
2016-12-16T12:25:35.771Z,4.78
2016-12-16T12:26:50.708Z,4.72
2016-12-16T12:27:35.806Z,4.69
2016-12-16T12:28:35.827Z,4.75
2016-12-16T12:29:35.841Z,4.69
2016-12-16T12:30:35.856Z,4.73
2016-12-16T12:31:35.876Z,4.72
2016-12-16T12:32:35.895Z,4.69
2016-12-16T12:34:35.931Z,4.66
2016-12-16T12:35:35.946Z,4.67
2016-12-16T12:36:36.016Z,4.66
2016-12-16T12:37:50.898Z,4.66
2016-12-16T12:38:36.000Z,4.66
2016-12-16T12:39:36.015Z,4.66
2016-12-16T12:40:36.032Z,4.69
2016-12-16T12:41:36.050Z,4.69
2016-12-16T12:42:50.984Z,4.63
2016-12-16T12:43:36.083Z,4.65
2016-12-16T12:44:36.156Z,4.72
2016-12-16T12:45:36.133Z,4.7
2016-12-16T12:46:36.138Z,4.6
2016-12-16T12:47:36.153Z,4.55
2016-12-16T12:48:36.173Z,4.55
2016-12-16T12:50:36.210Z,4.51
2016-12-16T12:51:36.226Z,4.6
2016-12-16T12:52:51.160Z,4.62
2016-12-16T12:53:36.262Z,4.58
2016-12-16T12:54:36.593Z,4.66
2016-12-16T12:55:51.211Z,4.65
2016-12-16T12:56:36.310Z,4.62
2016-12-16T12:57:36.329Z,4.7
2016-12-16T12:58:51.263Z,4.72
2016-12-16T12:59:36.363Z,4.65
2016-12-16T13:00:36.382Z,4.6
2016-12-16T13:01:36.399Z,4.59
2016-12-16T13:02:36.418Z,4.59
2016-12-16T13:03:36.432Z,4.48
2016-12-16T13:04:36.453Z,4.48
2016-12-16T13:05:51.391Z,4.69
2016-12-16T13:06:36.484Z,4.69
2016-12-16T13:07:51.422Z,4.73
2016-12-16T13:08:36.520Z,4.69
2016-12-16T13:09:36.535Z,4.69
2016-12-16T13:10:36.557Z,4.54
2016-12-16T13:11:36.570Z,4.58
2016-12-16T13:12:36.594Z,4.67
2016-12-16T13:13:36.606Z,4.69
2016-12-16T13:14:51.541Z,4.58
2016-12-16T13:15:36.946Z,4.55
2016-12-16T13:16:36.657Z,4.51
2016-12-16T13:17:36.675Z,4.59
2016-12-16T13:18:36.692Z,4.55
2016-12-16T13:19:36.707Z,4.44
2016-12-16T13:20:36.726Z,4.48
2016-12-16T13:21:36.749Z,4.44
2016-12-16T13:22:36.764Z,4.47
2016-12-16T13:23:36.781Z,4.47
2016-12-16T13:24:36.800Z,4.5
2016-12-16T13:25:51.732Z,4.42
2016-12-16T13:26:51.748Z,4.41
2016-12-16T13:27:36.902Z,4.5
2016-12-16T13:28:36.866Z,4.44
2016-12-16T13:29:51.803Z,4.44
2016-12-16T13:30:36.905Z,4.37
2016-12-16T13:31:36.923Z,4.36
2016-12-16T13:32:36.937Z,4.47
2016-12-16T13:33:36.951Z,4.47
2016-12-16T13:34:36.972Z,4.37
2016-12-16T13:35:36.985Z,4.33
2016-12-16T13:36:37.006Z,4.22
2016-12-16T13:37:37.020Z,4.2
2016-12-16T13:38:37.037Z,4.27
2016-12-16T13:39:37.360Z,4.23
2016-12-16T13:40:51.990Z,4.3
2016-12-16T13:41:37.091Z,4.24
2016-12-16T13:42:37.108Z,4.29
2016-12-16T13:43:37.123Z,4.22
2016-12-16T13:45:37.160Z,4.27
2016-12-16T13:46:37.174Z,4.2
2016-12-16T13:47:37.199Z,4.15
2016-12-16T13:48:37.209Z,4.15
2016-12-16T13:50:37.243Z,4.14
2016-12-16T13:51:37.260Z,4.06
2016-12-16T13:52:37.281Z,4.05
2016-12-16T13:53:37.294Z,4.06
2016-12-16T13:54:37.312Z,4.06
2016-12-16T13:55:37.329Z,4
2016-12-16T13:56:52.264Z,3.96
2016-12-16T13:57:37.369Z,3.91
2016-12-16T13:58:37.387Z,3.93
2016-12-16T13:59:37.398Z,4
2016-12-16T14:00:37.418Z,3.93
2016-12-16T14:01:52.350Z,3.9
2016-12-16T14:02:37.449Z,3.91
2016-12-16T14:03:37.467Z,3.83
2016-12-16T14:05:37.502Z,3.8
2016-12-16T14:07:37.533Z,3.8
2016-12-16T14:08:37.550Z,3.86
2016-12-16T14:09:37.567Z,3.84
2016-12-16T14:10:37.635Z,3.84
2016-12-16T14:11:37.599Z,3.87
2016-12-16T14:12:37.615Z,3.87
2016-12-16T14:13:37.635Z,3.84